createdAt,value
2022-10-19T00:00:33.810Z,13.42
2022-10-19T00:03:05.489Z,13.44
2022-10-19T00:05:40.178Z,13.43
2022-10-19T00:08:11.864Z,13.47
2022-10-19T00:10:43.789Z,13.50
2022-10-19T00:13:18.163Z,13.51
2022-10-19T00:15:51.200Z,13.53
2022-10-19T00:18:22.860Z,13.55
2022-10-19T00:21:03.643Z,13.56
2022-10-19T00:23:35.822Z,13.56
2022-10-19T00:26:07.758Z,13.57
2022-10-19T00:28:39.797Z,13.53
2022-10-19T00:31:17.743Z,13.55
2022-10-19T00:33:49.570Z,13.57
2022-10-19T00:36:24.205Z,13.57
2022-10-19T00:38:55.851Z,13.56
2022-10-19T00:41:30.915Z,13.56
2022-10-19T00:44:13.602Z,13.58
2022-10-19T00:46:50.636Z,13.58
2022-10-19T00:49:26.518Z,13.59
2022-10-19T00:52:19.555Z,13.60
2022-10-19T00:54:53.816Z,13.59
2022-10-19T00:57:28.850Z,13.59
2022-10-19T01:00:03.007Z,13.58
2022-10-19T01:02:35.767Z,13.55
2022-10-19T01:05:08.506Z,13.52
2022-10-19T01:07:40.284Z,13.49
2022-10-19T01:10:13.355Z,13.46
2022-10-19T01:12:54.206Z,13.45
2022-10-19T01:15:41.679Z,13.42
2022-10-19T01:18:22.975Z,13.42
2022-10-19T01:21:03.838Z,13.38
2022-10-19T01:23:57.006Z,13.37
2022-10-19T01:26:55.398Z,13.34
2022-10-19T01:29:57.824Z,13.28
2022-10-19T01:32:48.075Z,13.22
2022-10-19T01:35:40.966Z,13.09
2022-10-19T01:38:25.134Z,12.98
2022-10-19T01:41:24.321Z,12.97
2022-10-19T01:44:01.849Z,12.85
2022-10-19T01:46:41.794Z,12.85
2022-10-19T01:49:33.460Z,12.84
2022-10-19T01:52:08.918Z,12.81
2022-10-19T01:54:44.928Z,12.81
2022-10-19T01:57:21.783Z,12.83
2022-10-19T01:59:56.745Z,12.82
2022-10-19T02:02:30.848Z,12.79
2022-10-19T02:05:05.697Z,12.79
2022-10-19T02:07:40.453Z,12.75
2022-10-19T02:10:12.300Z,12.68
2022-10-19T02:12:44.670Z,12.69
2022-10-19T02:15:21.370Z,12.70
2022-10-19T02:17:57.507Z,12.71
2022-10-19T02:20:29.464Z,12.70
2022-10-19T02:23:07.614Z,12.77
2022-10-19T02:25:39.491Z,12.83
2022-10-19T02:28:11.683Z,12.90
2022-10-19T02:30:43.478Z,12.97
2022-10-19T02:33:15.886Z,13.02
2022-10-19T02:35:48.244Z,13.06
2022-10-19T02:38:24.961Z,13.09
2022-10-19T02:41:15.644Z,13.09
2022-10-19T02:43:59.445Z,13.11
2022-10-19T02:49:18.133Z,13.13
2022-10-19T02:52:07.682Z,13.17
2022-10-19T02:54:41.187Z,13.20
2022-10-19T02:57:25.005Z,13.18
2022-10-19T02:59:56.624Z,13.13
2022-10-19T03:02:28.297Z,13.08
2022-10-19T03:04:59.924Z,13.11
2022-10-19T03:07:34.600Z,13.10
2022-10-19T03:10:06.953Z,13.09
2022-10-19T03:12:38.627Z,13.13
2022-10-19T03:15:15.359Z,13.17
2022-10-19T03:17:46.996Z,13.16
2022-10-19T03:20:18.662Z,13.17
2022-10-19T03:22:50.650Z,13.15
2022-10-19T03:25:25.004Z,13.07
2022-10-19T03:27:58.178Z,13.06
2022-10-19T03:30:29.909Z,13.09
2022-10-19T03:33:01.542Z,13.08
2022-10-19T03:35:35.216Z,13.07
2022-10-19T03:38:06.836Z,13.04
2022-10-19T03:40:40.482Z,13.02
2022-10-19T03:43:12.207Z,13.00
2022-10-19T03:45:46.736Z,12.96
2022-10-19T03:48:18.356Z,12.94
2022-10-19T03:51:01.503Z,12.93
2022-10-19T03:53:34.237Z,12.86
2022-10-19T03:56:19.545Z,12.77
2022-10-19T03:58:53.030Z,12.68
2022-10-19T04:01:33.568Z,12.64
2022-10-19T04:04:09.670Z,12.60
2022-10-19T04:06:44.107Z,12.59
2022-10-19T04:09:19.362Z,12.54
2022-10-19T04:11:51.171Z,12.54
2022-10-19T04:14:32.164Z,12.50
2022-10-19T04:17:04.926Z,12.39
2022-10-19T04:19:36.632Z,12.37
2022-10-19T04:22:08.279Z,12.36
2022-10-19T04:24:39.919Z,12.35
2022-10-19T04:27:11.752Z,12.35
2022-10-19T04:29:43.520Z,12.34
2022-10-19T04:32:18.489Z,12.31
2022-10-19T04:34:50.102Z,12.28
2022-10-19T04:37:21.819Z,12.25
2022-10-19T04:39:53.465Z,12.22
2022-10-19T04:42:25.106Z,12.17
2022-10-19T04:44:56.736Z,12.14
2022-10-19T04:47:29.998Z,12.12
2022-10-19T04:50:01.744Z,12.10
2022-10-19T04:52:35.294Z,12.13
2022-10-19T04:55:07.336Z,12.14
2022-10-19T04:57:39.016Z,12.14
2022-10-19T05:00:11.226Z,12.16
2022-10-19T05:02:44.968Z,12.15
2022-10-19T05:05:16.633Z,12.14
2022-10-19T05:07:49.310Z,12.11
2022-10-19T05:10:20.964Z,12.12
2022-10-19T05:12:53.128Z,12.09
2022-10-19T05:15:24.802Z,12.09
2022-10-19T05:17:57.384Z,12.07
2022-10-19T05:20:29.076Z,12.09
2022-10-19T05:23:04.757Z,12.11
2022-10-19T05:25:39.071Z,12.10
2022-10-19T05:28:10.830Z,12.10
2022-10-19T05:30:46.660Z,12.10
2022-10-19T05:33:20.577Z,12.08
2022-10-19T05:35:52.204Z,12.09
2022-10-19T05:38:25.091Z,12.12
2022-10-19T05:40:56.734Z,12.15
2022-10-19T05:43:28.380Z,12.17
2022-10-19T05:46:08.149Z,12.18
2022-10-19T05:48:40.805Z,12.19
2022-10-19T05:51:15.339Z,12.24
2022-10-19T05:53:47.200Z,12.25
2022-10-19T05:56:22.205Z,12.26
2022-10-19T05:58:56.101Z,12.27
2022-10-19T06:01:29.499Z,12.27
2022-10-19T06:04:03.380Z,12.27
2022-10-19T06:06:35.154Z,12.26
2022-10-19T06:09:06.999Z,12.27
2022-10-19T06:11:41.445Z,12.27
2022-10-19T06:14:16.548Z,12.29
2022-10-19T06:16:48.701Z,12.27
2022-10-19T06:19:20.433Z,12.26
2022-10-19T06:21:52.167Z,12.24
2022-10-19T06:24:24.159Z,12.23
2022-10-19T06:26:55.798Z,12.19
2022-10-19T06:29:27.552Z,12.22
2022-10-19T06:32:00.422Z,12.28
2022-10-19T06:34:32.165Z,12.28
2022-10-19T06:37:03.897Z,12.29
2022-10-19T06:39:36.413Z,12.37
2022-10-19T06:42:09.607Z,12.53
2022-10-19T06:44:41.340Z,12.59
2022-10-19T06:47:13.126Z,12.57
2022-10-19T06:49:44.909Z,12.59
2022-10-19T06:52:16.538Z,12.64
2022-10-19T06:54:48.330Z,12.75
2022-10-19T06:57:20.027Z,12.88
2022-10-19T06:59:53.018Z,12.83
2022-10-19T07:02:25.786Z,12.82
2022-10-19T07:04:57.476Z,13.05
2022-10-19T07:07:29.162Z,14.09
2022-10-19T07:10:02.695Z,15.94
2022-10-19T07:12:34.548Z,17.93
2022-10-19T07:15:06.889Z,19.75
2022-10-19T07:17:38.624Z,21.48
2022-10-19T07:20:10.961Z,22.83
2022-10-19T07:22:42.673Z,23.51
2022-10-19T07:25:14.795Z,24.13
2022-10-19T07:27:46.546Z,24.61
2022-10-19T07:30:23.672Z,25.09
2022-10-19T07:32:55.422Z,25.25
2022-10-19T07:35:27.565Z,24.95
2022-10-19T07:37:59.411Z,24.66
2022-10-19T07:40:31.255Z,25.09
2022-10-19T07:43:03.382Z,25.26
2022-10-19T07:45:35.358Z,24.28
2022-10-19T07:48:07.264Z,23.77
2022-10-19T07:50:39.377Z,22.42
2022-10-19T07:53:11.222Z,22.16
2022-10-19T07:55:43.202Z,22.57
2022-10-19T07:58:14.925Z,22.80
2022-10-19T08:00:47.326Z,22.91
2022-10-19T08:03:57.509Z,22.72
2022-10-19T08:06:13.832Z,22.35
2022-10-19T08:08:46.793Z,22.29
2022-10-19T08:11:27.491Z,22.42
2022-10-19T08:13:59.382Z,22.74
2022-10-19T08:16:33.249Z,22.94
2022-10-19T08:19:08.180Z,22.94
2022-10-19T08:21:42.553Z,22.67
2022-10-19T08:24:16.403Z,22.23
2022-10-19T08:26:51.235Z,21.75
2022-10-19T08:29:23.820Z,21.33
2022-10-19T08:31:57.642Z,21.06
2022-10-19T08:34:29.331Z,20.46
2022-10-19T08:37:10.089Z,19.77
2022-10-19T08:39:52.160Z,19.19
2022-10-19T08:42:33.826Z,19.50
2022-10-19T08:45:27.209Z,20.04
2022-10-19T08:48:30.353Z,20.67
2022-10-19T08:51:03.225Z,20.25
2022-10-19T08:53:38.140Z,20.33
2022-10-19T08:56:51.461Z,20.56
2022-10-19T08:59:50.255Z,20.59
2022-10-19T09:02:32.200Z,20.81
2022-10-19T09:05:13.456Z,20.87
2022-10-19T09:07:47.421Z,20.90
2022-10-19T09:10:38.883Z,20.93
2022-10-19T09:13:36.497Z,21.29
2022-10-19T09:16:20.188Z,21.18
2022-10-19T09:21:47.910Z,22.08
2022-10-19T09:24:29.975Z,22.21
2022-10-19T09:27:03.130Z,22.27
2022-10-19T09:29:43.692Z,22.60
2022-10-19T09:32:20.979Z,21.79
2022-10-19T09:35:07.375Z,22.30
2022-10-19T09:37:44.870Z,22.72
2022-10-19T09:40:20.205Z,22.34
2022-10-19T09:42:57.308Z,21.81
2022-10-19T09:45:54.301Z,21.96
2022-10-19T09:48:33.409Z,21.67
2022-10-19T09:51:17.847Z,21.32
2022-10-19T09:53:54.817Z,21.18
2022-10-19T09:56:28.034Z,20.62
2022-10-19T09:59:00.151Z,20.40
2022-10-19T10:01:41.733Z,20.28
2022-10-19T10:04:17.925Z,19.99
2022-10-19T10:06:50.495Z,19.98
2022-10-19T10:09:27.342Z,19.65
2022-10-19T10:12:02.515Z,19.51
2022-10-19T10:14:36.740Z,19.28
2022-10-19T10:17:34.827Z,19.18
2022-10-19T10:20:17.679Z,19.25
2022-10-19T10:23:01.671Z,19.12
2022-10-19T10:25:36.298Z,18.87
2022-10-19T10:28:32.486Z,18.47
2022-10-19T10:31:08.871Z,18.12
2022-10-19T10:33:45.687Z,18.05
2022-10-19T10:36:18.337Z,17.80
2022-10-19T10:38:55.653Z,17.68
2022-10-19T10:41:31.628Z,17.65
2022-10-19T10:44:08.591Z,17.64
2022-10-19T10:46:51.697Z,17.05
2022-10-19T10:49:37.398Z,16.96
2022-10-19T10:52:15.641Z,17.09
2022-10-19T10:55:09.054Z,17.28
2022-10-19T10:57:50.861Z,17.42
2022-10-19T11:00:24.187Z,17.32
2022-10-19T11:03:17.664Z,17.26
2022-10-19T11:05:57.141Z,17.40
2022-10-19T11:09:03.728Z,17.52
2022-10-19T11:11:43.426Z,17.41
2022-10-19T11:14:37.946Z,17.40
2022-10-19T11:17:20.019Z,17.51
2022-10-19T11:19:52.042Z,17.41
2022-10-19T11:22:41.782Z,17.37
2022-10-19T11:25:30.249Z,17.53
2022-10-19T11:28:26.935Z,17.58
2022-10-19T11:31:34.147Z,17.23
2022-10-19T11:34:30.636Z,17.10
2022-10-19T11:37:14.612Z,17.19
2022-10-19T11:40:22.109Z,17.47
2022-10-19T11:43:07.023Z,17.19
2022-10-19T11:46:05.024Z,16.79
2022-10-19T11:48:55.070Z,16.21
2022-10-19T11:51:47.052Z,15.95
2022-10-19T11:54:44.204Z,15.96
2022-10-19T11:57:26.208Z,15.90
2022-10-19T12:00:15.166Z,15.69
2022-10-19T12:03:27.969Z,15.64
2022-10-19T12:06:23.012Z,15.67
2022-10-19T12:09:20.990Z,15.61
2022-10-19T12:12:20.835Z,15.67
2022-10-19T12:15:03.292Z,15.70
2022-10-19T12:17:38.248Z,15.68
2022-10-19T12:20:24.643Z,15.71
2022-10-19T12:22:59.368Z,15.63
2022-10-19T12:25:31.095Z,15.47
2022-10-19T12:28:10.361Z,15.40
2022-10-19T12:30:42.115Z,15.40
2022-10-19T12:33:26.515Z,15.17
2022-10-19T12:36:25.472Z,15.35
2022-10-19T12:39:02.602Z,15.42
2022-10-19T12:41:44.863Z,15.33
2022-10-19T12:44:32.525Z,15.34
2022-10-19T12:47:11.841Z,15.26
2022-10-19T12:49:44.811Z,15.19
2022-10-19T12:52:40.613Z,15.10
2022-10-19T12:55:28.047Z,14.96
2022-10-19T12:58:03.095Z,14.95
2022-10-19T13:00:37.656Z,14.94
2022-10-19T13:03:20.816Z,14.90
2022-10-19T13:06:06.130Z,14.91
2022-10-19T13:08:53.004Z,15.01
2022-10-19T13:11:25.359Z,14.92
2022-10-19T13:14:06.396Z,15.09
2022-10-19T13:16:38.072Z,15.21
2022-10-19T13:19:12.469Z,15.22
2022-10-19T13:21:48.920Z,15.34
2022-10-19T13:24:23.547Z,15.44
2022-10-19T13:27:04.195Z,15.48
2022-10-19T13:29:38.766Z,15.44
2022-10-19T13:32:38.120Z,15.37
2022-10-19T13:35:28.764Z,15.21
2022-10-19T13:38:16.470Z,14.98
2022-10-19T13:40:51.254Z,14.86
2022-10-19T13:43:27.346Z,14.87
2022-10-19T13:46:10.628Z,14.86
2022-10-19T13:49:08.511Z,14.87
2022-10-19T13:52:07.909Z,14.93
2022-10-19T13:55:17.148Z,14.83
2022-10-19T13:58:14.294Z,14.68
2022-10-19T14:00:48.903Z,14.48
2022-10-19T14:03:39.027Z,14.40
2022-10-19T14:06:31.711Z,14.29
2022-10-19T14:09:18.808Z,14.10
2022-10-19T14:11:54.094Z,14.06
2022-10-19T14:14:28.274Z,14.03
2022-10-19T14:17:04.415Z,13.99
2022-10-19T14:19:49.027Z,14.07
2022-10-19T14:22:27.157Z,14.07
2022-10-19T14:25:20.778Z,14.11
2022-10-19T14:28:06.048Z,14.11
2022-10-19T14:30:37.989Z,14.12
2022-10-19T14:33:14.905Z,14.11
2022-10-19T14:35:50.177Z,14.15
2022-10-19T14:38:43.433Z,14.24
2022-10-19T14:41:27.165Z,14.24
2022-10-19T14:44:00.584Z,14.19
2022-10-19T14:46:34.187Z,14.12
2022-10-19T14:49:11.473Z,13.99
2022-10-19T14:51:49.511Z,13.85
2022-10-19T14:54:36.138Z,13.85
2022-10-19T14:57:39.671Z,13.75
2022-10-19T15:00:18.722Z,13.70
2022-10-19T15:03:07.098Z,13.69
2022-10-19T15:05:46.369Z,13.72
2022-10-19T15:08:34.011Z,13.69
2022-10-19T15:11:07.777Z,13.67
2022-10-19T15:13:43.061Z,13.70
2022-10-19T15:16:43.270Z,13.57
2022-10-19T15:19:25.058Z,13.50
2022-10-19T15:22:26.868Z,13.48
2022-10-19T15:25:23.563Z,13.44
2022-10-19T15:27:57.740Z,13.40
2022-10-19T15:30:32.548Z,13.42
2022-10-19T15:33:04.476Z,13.45
2022-10-19T15:35:39.719Z,13.44
2022-10-19T15:38:14.896Z,13.27
2022-10-19T15:40:48.287Z,13.28
2022-10-19T15:43:35.086Z,13.34
2022-10-19T15:46:20.506Z,13.34
2022-10-19T15:48:57.599Z,13.23
2022-10-19T15:51:32.087Z,13.25
2022-10-19T15:54:06.408Z,13.21
2022-10-19T15:56:39.952Z,13.20
2022-10-19T15:59:18.122Z,13.19
2022-10-19T16:01:52.608Z,13.10
2022-10-19T16:04:26.935Z,13.01
2022-10-19T16:06:58.807Z,12.97
2022-10-19T16:09:30.688Z,12.93
2022-10-19T16:12:02.476Z,12.93
2022-10-19T16:14:36.610Z,12.93
2022-10-19T16:17:13.359Z,12.95
2022-10-19T16:19:46.135Z,12.86
2022-10-19T16:22:18.043Z,12.78
2022-10-19T16:24:49.795Z,12.79
2022-10-19T16:27:21.585Z,12.77
2022-10-19T16:29:54.743Z,12.73
2022-10-19T16:32:26.426Z,12.59
2022-10-19T16:34:59.780Z,12.55
2022-10-19T16:37:31.749Z,12.50
2022-10-19T16:40:05.351Z,12.43
2022-10-19T16:42:37.636Z,12.49
2022-10-19T16:45:10.171Z,12.56
2022-10-19T16:47:41.858Z,12.56
2022-10-19T16:50:13.915Z,12.48
2022-10-19T16:52:45.937Z,12.46
2022-10-19T16:55:18.220Z,12.52
2022-10-19T16:57:53.467Z,12.49
2022-10-19T17:00:27.962Z,12.51
2022-10-19T17:02:59.642Z,12.53
2022-10-19T17:05:31.367Z,12.52
2022-10-19T17:08:05.194Z,12.49
2022-10-19T17:10:36.965Z,12.38
2022-10-19T17:13:08.734Z,12.29
2022-10-19T17:15:43.267Z,12.33
2022-10-19T17:18:15.510Z,12.35
2022-10-19T17:20:47.270Z,12.41
2022-10-19T17:23:19.109Z,12.47
2022-10-19T17:25:51.080Z,12.48
2022-10-19T17:28:25.480Z,12.37
2022-10-19T17:31:07.987Z,12.27
2022-10-19T17:33:40.851Z,12.26
2022-10-19T17:36:33.867Z,12.16
2022-10-19T17:39:08.696Z,12.04
2022-10-19T17:41:40.196Z,11.95
2022-10-19T17:44:12.792Z,11.86
2022-10-19T17:46:45.093Z,11.88
2022-10-19T17:49:17.342Z,11.87
2022-10-19T17:51:49.293Z,11.88
2022-10-19T17:54:21.083Z,11.90
2022-10-19T17:56:52.776Z,11.92
2022-10-19T17:59:34.922Z,11.93
2022-10-19T18:02:07.839Z,11.92
2022-10-19T18:04:39.639Z,11.92
2022-10-19T18:07:11.790Z,11.90
2022-10-19T18:09:43.493Z,11.86
2022-10-19T18:12:15.287Z,11.82
2022-10-19T18:14:47.007Z,11.78
2022-10-19T18:17:18.771Z,11.74
2022-10-19T18:19:50.637Z,11.67
2022-10-19T18:22:22.793Z,11.60
2022-10-19T18:24:54.677Z,11.53
2022-10-19T18:27:26.910Z,11.44
2022-10-19T18:29:58.564Z,11.39
2022-10-19T18:32:30.403Z,11.29
2022-10-19T18:35:02.089Z,11.22
2022-10-19T18:37:33.977Z,11.18
2022-10-19T18:40:06.417Z,11.10
2022-10-19T18:42:38.319Z,11.03
2022-10-19T18:45:10.256Z,10.98
2022-10-19T18:47:42.137Z,10.91
2022-10-19T18:52:50.785Z,10.77
2022-10-19T18:55:22.915Z,10.72
2022-10-19T18:57:54.571Z,10.65
2022-10-19T19:00:26.192Z,10.63
2022-10-19T19:02:58.169Z,10.59
2022-10-19T19:05:31.807Z,10.53
2022-10-19T19:08:03.567Z,10.48
2022-10-19T19:10:35.196Z,10.40
2022-10-19T19:13:08.193Z,10.34
2022-10-19T19:15:40.149Z,10.30
2022-10-19T19:18:12.270Z,10.25
2022-10-19T19:20:44.090Z,10.19
2022-10-19T19:23:15.961Z,10.16
2022-10-19T19:25:51.085Z,10.11
2022-10-19T19:28:23.289Z,10.07
2022-10-19T19:30:57.836Z,10.04
2022-10-19T19:33:30.080Z,10.00
2022-10-19T19:36:05.782Z,9.96
2022-10-19T19:38:37.585Z,9.91
2022-10-19T19:41:11.974Z,9.86
2022-10-19T19:43:43.912Z,9.81
2022-10-19T19:46:18.459Z,9.77
2022-10-19T19:48:50.175Z,9.71
2022-10-19T19:51:22.754Z,9.64
2022-10-19T19:53:54.516Z,9.61
2022-10-19T19:56:27.405Z,9.59
2022-10-19T19:59:00.799Z,9.58
2022-10-19T20:01:33.077Z,9.54
2022-10-19T20:04:05.795Z,9.51
2022-10-19T20:06:39.127Z,9.49
2022-10-19T20:09:11.546Z,9.46
2022-10-19T20:11:44.194Z,9.44
2022-10-19T20:14:15.935Z,9.41
2022-10-19T20:16:47.628Z,9.36
2022-10-19T20:19:19.360Z,9.33
2022-10-19T20:21:53.317Z,9.28
2022-10-19T20:24:25.715Z,9.24
2022-10-19T20:26:57.393Z,9.21
2022-10-19T20:29:30.239Z,9.18
2022-10-19T20:32:02.532Z,9.15
2022-10-19T20:34:35.853Z,9.15
2022-10-19T20:37:07.573Z,9.10
2022-10-19T20:39:39.279Z,9.04
2022-10-19T20:42:11.125Z,9.00
2022-10-19T20:44:43.423Z,8.97
2022-10-19T20:47:15.276Z,8.95
2022-10-19T20:49:47.751Z,8.90
2022-10-19T20:52:19.430Z,8.83
2022-10-19T20:54:51.355Z,8.80
2022-10-19T20:57:23.130Z,8.75
2022-10-19T20:59:54.809Z,8.73
2022-10-19T21:02:26.565Z,8.70
2022-10-19T21:04:58.250Z,8.69
2022-10-19T21:07:30.091Z,8.63
2022-10-19T21:10:01.934Z,8.62
2022-10-19T21:12:33.995Z,8.59
2022-10-19T21:15:07.650Z,8.55
2022-10-19T21:17:39.238Z,8.53
2022-10-19T21:20:13.523Z,8.52
2022-10-19T21:22:45.314Z,8.49
2022-10-19T21:25:17.040Z,8.46
2022-10-19T21:27:51.800Z,8.43
2022-10-19T21:30:23.545Z,8.41
2022-10-19T21:32:55.350Z,8.40
2022-10-19T21:35:27.100Z,8.38
2022-10-19T21:37:59.147Z,8.37
2022-10-19T21:40:30.861Z,8.34
2022-10-19T21:43:02.509Z,8.29
2022-10-19T21:45:37.889Z,8.25
2022-10-19T21:48:10.222Z,8.22
2022-10-19T21:50:42.052Z,8.22
2022-10-19T21:53:17.749Z,8.21
2022-10-19T21:55:53.575Z,8.21
2022-10-19T21:58:25.401Z,8.18
2022-10-19T22:01:07.598Z,8.15
2022-10-19T22:03:42.230Z,8.12
2022-10-19T22:06:14.691Z,8.09
2022-10-19T22:13:03.493Z,7.97
2022-10-19T22:15:39.398Z,7.92
2022-10-19T22:18:11.177Z,7.91
2022-10-19T22:20:48.966Z,7.86
2022-10-19T22:28:15.031Z,7.84
2022-10-19T22:30:57.381Z,7.85
2022-10-19T22:33:35.009Z,7.86
2022-10-19T22:36:13.075Z,7.85
2022-10-19T22:38:45.202Z,7.79
2022-10-19T22:42:13.633Z,7.79
2022-10-19T22:45:07.554Z,7.75
2022-10-19T22:47:39.286Z,7.72
2022-10-19T22:50:11.936Z,7.73
2022-10-19T22:52:43.807Z,7.71
